createdAt,value
2022-08-19T00:00:31.452Z,4.05
2022-08-19T00:01:30.414Z,4.25
2022-08-19T00:02:17.543Z,3.75
2022-08-19T00:03:05.011Z,4.70
2022-08-19T00:03:52.146Z,4.05
2022-08-19T00:04:39.205Z,4.32
2022-08-19T00:05:26.029Z,4.37
2022-08-19T00:06:13.364Z,4.28
2022-08-19T00:07:05.169Z,4.45
2022-08-19T00:07:52.097Z,4.50
2022-08-19T00:08:38.863Z,4.10
2022-08-19T00:09:30.247Z,4.40
2022-08-19T00:10:18.783Z,4.35
2022-08-19T00:11:06.029Z,4.93
2022-08-19T00:11:54.559Z,4.28
2022-08-19T00:12:46.777Z,4.70
2022-08-19T00:13:34.646Z,4.10
2022-08-19T00:14:21.887Z,4.05
2022-08-19T00:15:12.797Z,4.20
2022-08-19T00:16:00.827Z,5.30
2022-08-19T00:16:48.798Z,3.92
2022-08-19T00:17:35.577Z,4.25
2022-08-19T00:18:28.836Z,4.30
2022-08-19T00:19:16.907Z,4.05
2022-08-19T00:20:04.706Z,4.18
2022-08-19T00:20:51.466Z,3.60
2022-08-19T00:21:40.595Z,3.60
2022-08-19T00:22:29.445Z,4.28
2022-08-19T00:23:16.195Z,4.30
2022-08-19T00:24:03.198Z,4.20
2022-08-19T00:24:51.021Z,4.68
2022-08-19T00:25:37.882Z,4.30
2022-08-19T00:26:25.810Z,4.60
2022-08-19T00:27:26.287Z,4.87
2022-08-19T00:28:13.540Z,4.57
2022-08-19T00:29:01.813Z,4.47
2022-08-19T00:29:52.234Z,4.72
2022-08-19T00:30:39.680Z,4.30
2022-08-19T00:31:26.581Z,4.12
2022-08-19T00:32:13.373Z,4.35
2022-08-19T00:33:01.246Z,4.72
2022-08-19T00:33:48.999Z,4.20
2022-08-19T00:34:36.520Z,4.25
2022-08-19T00:35:23.360Z,4.55
2022-08-19T00:36:11.038Z,4.90
2022-08-19T00:36:58.867Z,4.12
2022-08-19T00:37:45.900Z,4.22
2022-08-19T00:38:37.776Z,4.72
2022-08-19T00:39:25.233Z,4.82
2022-08-19T00:40:13.521Z,4.00
2022-08-19T00:41:00.625Z,4.85
2022-08-19T00:41:49.979Z,4.80
2022-08-19T00:42:36.867Z,3.97
2022-08-19T00:43:26.851Z,4.00
2022-08-19T00:44:17.048Z,5.10
2022-08-19T00:45:10.877Z,4.15
2022-08-19T00:45:57.903Z,4.12
2022-08-19T00:46:55.340Z,4.05
2022-08-19T00:47:46.178Z,4.07
2022-08-19T00:48:34.636Z,4.10
2022-08-19T00:49:55.284Z,5.10
2022-08-19T00:50:51.508Z,4.87
2022-08-19T00:51:39.199Z,5.37
2022-08-19T00:52:32.980Z,4.18
2022-08-19T00:53:22.145Z,4.30
2022-08-19T00:54:10.258Z,4.32
2022-08-19T00:54:58.966Z,4.68
2022-08-19T00:55:51.565Z,4.10
2022-08-19T00:56:40.050Z,4.57
2022-08-19T00:57:35.277Z,4.40
2022-08-19T00:58:24.464Z,4.60
2022-08-19T00:59:11.703Z,4.25
2022-08-19T01:00:02.279Z,4.43
2022-08-19T01:00:49.867Z,3.75
2022-08-19T01:01:42.174Z,4.20
2022-08-19T01:02:29.179Z,4.60
2022-08-19T01:03:19.600Z,4.75
2022-08-19T01:04:53.204Z,3.95
2022-08-19T01:05:42.725Z,3.90
2022-08-19T01:06:29.558Z,4.37
2022-08-19T01:07:19.593Z,4.55
2022-08-19T01:08:07.560Z,4.12
2022-08-19T01:08:56.245Z,4.35
2022-08-19T01:09:43.023Z,4.43
2022-08-19T01:10:38.994Z,3.87
2022-08-19T01:11:26.477Z,4.72
2022-08-19T01:12:13.205Z,4.15
2022-08-19T01:13:01.015Z,3.90
2022-08-19T01:13:49.425Z,4.43
2022-08-19T01:14:39.027Z,4.93
2022-08-19T01:15:30.514Z,3.85
2022-08-19T01:16:18.959Z,4.10
2022-08-19T01:17:06.325Z,4.45
2022-08-19T01:17:53.322Z,4.40
2022-08-19T01:18:42.967Z,4.12
2022-08-19T01:19:44.370Z,4.40
2022-08-19T01:20:31.507Z,3.90
2022-08-19T01:21:43.714Z,4.97
2022-08-19T01:22:41.156Z,4.82
2022-08-19T01:23:43.717Z,4.03
2022-08-19T01:24:31.867Z,4.72
2022-08-19T01:25:21.258Z,5.18
2022-08-19T01:26:08.035Z,4.40
2022-08-19T01:26:55.925Z,3.78
2022-08-19T01:27:45.919Z,4.37
2022-08-19T01:28:33.842Z,4.40
2022-08-19T01:29:21.357Z,4.22
2022-08-19T01:30:09.329Z,4.20
2022-08-19T01:30:56.286Z,4.20
2022-08-19T01:31:43.469Z,4.62
2022-08-19T01:32:34.022Z,5.03
2022-08-19T01:33:21.929Z,3.97
2022-08-19T01:34:08.966Z,4.70
2022-08-19T01:34:55.765Z,4.15
2022-08-19T01:35:43.445Z,4.60
2022-08-19T01:36:37.321Z,4.62
2022-08-19T01:37:27.238Z,3.90
2022-08-19T01:38:25.000Z,4.80
2022-08-19T01:39:17.402Z,4.70
2022-08-19T01:40:09.229Z,4.35
2022-08-19T01:40:56.251Z,4.28
2022-08-19T01:41:42.994Z,4.10
2022-08-19T01:42:30.898Z,3.90
2022-08-19T01:43:18.216Z,4.12
2022-08-19T01:44:17.591Z,4.28
2022-08-19T01:45:08.658Z,3.95
2022-08-19T01:45:55.419Z,3.92
2022-08-19T01:46:43.183Z,3.85
2022-08-19T01:47:30.250Z,4.43
2022-08-19T01:48:17.040Z,4.60
2022-08-19T01:49:05.399Z,3.87
2022-08-19T01:49:52.202Z,4.35
2022-08-19T01:50:39.278Z,4.10
2022-08-19T01:51:26.119Z,4.43
2022-08-19T01:52:13.023Z,4.35
2022-08-19T01:53:06.235Z,4.32
2022-08-19T01:53:54.202Z,4.07
2022-08-19T01:54:40.999Z,4.15
2022-08-19T01:55:27.787Z,4.68
2022-08-19T01:56:14.598Z,4.03
2022-08-19T01:57:06.958Z,4.43
2022-08-19T01:57:57.285Z,4.15
2022-08-19T01:58:51.933Z,5.28
2022-08-19T01:59:38.990Z,4.28
2022-08-19T02:00:27.702Z,4.15
2022-08-19T02:01:15.063Z,4.10
2022-08-19T02:02:02.278Z,4.72
2022-08-19T02:02:49.293Z,4.47
2022-08-19T02:03:36.159Z,3.92
2022-08-19T02:04:24.461Z,4.37
2022-08-19T02:05:12.770Z,4.00
2022-08-19T02:06:01.402Z,3.87
2022-08-19T02:06:49.233Z,4.43
2022-08-19T02:07:36.944Z,4.30
2022-08-19T02:08:28.485Z,4.05
2022-08-19T02:09:15.626Z,4.20
2022-08-19T02:10:08.959Z,4.43
2022-08-19T02:11:00.198Z,4.22
2022-08-19T02:11:46.944Z,4.70
2022-08-19T02:12:33.728Z,3.90
2022-08-19T02:13:26.457Z,5.70
2022-08-19T02:14:14.283Z,4.03
2022-08-19T02:15:02.902Z,3.80
2022-08-19T02:15:49.638Z,4.82
2022-08-19T02:16:37.954Z,4.07
2022-08-19T02:17:24.744Z,4.18
2022-08-19T02:18:11.814Z,4.68
2022-08-19T02:19:01.686Z,5.10
2022-08-19T02:19:48.981Z,4.10
2022-08-19T02:20:36.860Z,4.15
2022-08-19T02:21:25.225Z,4.40
2022-08-19T02:22:12.054Z,4.60
2022-08-19T02:22:58.864Z,4.25
2022-08-19T02:23:45.949Z,4.12
2022-08-19T02:24:32.947Z,4.40
2022-08-19T02:25:19.717Z,4.10
2022-08-19T02:26:07.488Z,4.20
2022-08-19T02:26:54.782Z,4.65
2022-08-19T02:27:42.430Z,4.68
2022-08-19T02:28:29.235Z,4.30
2022-08-19T02:29:16.005Z,4.95
2022-08-19T02:30:03.257Z,4.35
2022-08-19T02:30:50.041Z,4.47
2022-08-19T02:31:37.024Z,4.50
2022-08-19T02:32:23.883Z,4.68
2022-08-19T02:33:10.810Z,4.50
2022-08-19T02:33:57.845Z,5.22
2022-08-19T02:34:44.603Z,4.78
2022-08-19T02:35:31.928Z,4.30
2022-08-19T02:36:21.231Z,4.47
2022-08-19T02:37:28.188Z,4.25
2022-08-19T02:38:27.414Z,4.40
2022-08-19T02:39:14.660Z,4.10
2022-08-19T02:40:02.102Z,4.40
2022-08-19T02:40:52.932Z,4.62
2022-08-19T02:41:39.685Z,4.27
2022-08-19T02:42:26.604Z,4.20
2022-08-19T02:43:13.346Z,4.85
2022-08-19T02:44:26.477Z,4.40
2022-08-19T02:45:09.312Z,4.32
2022-08-19T02:45:56.183Z,4.47
2022-08-19T02:46:44.479Z,4.15
2022-08-19T02:47:31.228Z,4.30
2022-08-19T02:48:21.651Z,4.20
2022-08-19T02:49:09.256Z,4.07
2022-08-19T02:49:56.005Z,5.35
2022-08-19T02:50:51.777Z,4.43
2022-08-19T02:51:44.325Z,4.00
2022-08-19T02:52:31.980Z,5.22
2022-08-19T02:53:18.724Z,4.30
2022-08-19T02:54:07.713Z,4.60
2022-08-19T02:54:54.452Z,4.07
2022-08-19T02:55:46.847Z,4.55
2022-08-19T02:56:36.399Z,4.70
2022-08-19T02:57:23.332Z,5.00
2022-08-19T02:58:10.107Z,4.72
2022-08-19T02:58:56.947Z,4.25
2022-08-19T02:59:43.739Z,4.85
2022-08-19T03:00:30.497Z,4.43
2022-08-19T03:01:30.979Z,4.85
2022-08-19T03:02:17.731Z,4.43
2022-08-19T03:03:04.522Z,4.40
2022-08-19T03:03:52.131Z,4.35
2022-08-19T03:04:39.396Z,5.43
2022-08-19T03:05:46.837Z,4.37
2022-08-19T03:06:33.418Z,4.28
2022-08-19T03:07:20.220Z,4.10
2022-08-19T03:08:07.506Z,4.37
2022-08-19T03:08:54.451Z,4.43
2022-08-19T03:09:41.207Z,4.82
2022-08-19T03:10:28.116Z,4.03
2022-08-19T03:11:17.491Z,4.55
2022-08-19T03:12:05.804Z,4.45
2022-08-19T03:12:52.682Z,4.65
2022-08-19T03:13:39.454Z,4.65
2022-08-19T03:14:26.185Z,5.07
2022-08-19T03:15:12.988Z,4.15
2022-08-19T03:15:59.791Z,4.65
2022-08-19T03:16:50.427Z,4.15
2022-08-19T03:17:37.600Z,4.30
2022-08-19T03:18:24.669Z,4.20
2022-08-19T03:19:11.419Z,4.62
2022-08-19T03:19:58.352Z,4.75
2022-08-19T03:20:48.296Z,4.45
2022-08-19T03:21:36.120Z,4.50
2022-08-19T03:22:22.966Z,4.68
2022-08-19T03:23:09.942Z,4.28
2022-08-19T03:24:01.476Z,4.57
2022-08-19T03:24:48.694Z,4.45
2022-08-19T03:25:42.247Z,4.50
2022-08-19T03:26:29.551Z,4.65
2022-08-19T03:27:16.346Z,4.53
2022-08-19T03:28:03.210Z,4.47
2022-08-19T03:28:58.210Z,5.07
2022-08-19T03:29:46.005Z,4.53
2022-08-19T03:30:33.276Z,4.05
2022-08-19T03:31:44.856Z,4.37
2022-08-19T03:32:32.931Z,4.68
2022-08-19T03:33:26.458Z,4.40
2022-08-19T03:34:20.118Z,5.20
2022-08-19T03:35:07.156Z,4.30
2022-08-19T03:36:16.573Z,4.93
2022-08-19T03:37:09.254Z,4.80
2022-08-19T03:37:57.533Z,4.60
2022-08-19T03:38:47.478Z,4.55
2022-08-19T03:39:34.996Z,4.78
2022-08-19T03:40:21.807Z,4.95
2022-08-19T03:41:11.635Z,4.70
2022-08-19T03:42:29.298Z,5.00
2022-08-19T03:43:07.155Z,4.47
2022-08-19T03:43:55.125Z,5.18
2022-08-19T03:44:43.408Z,4.53
2022-08-19T03:45:30.406Z,4.80
2022-08-19T03:46:21.445Z,5.10
2022-08-19T03:47:08.191Z,4.70
2022-08-19T03:47:55.039Z,5.18
2022-08-19T03:48:43.306Z,4.55
2022-08-19T03:49:32.137Z,4.18
2022-08-19T03:50:20.857Z,4.93
2022-08-19T03:51:08.623Z,4.62
2022-08-19T03:51:57.713Z,4.68
2022-08-19T03:52:49.669Z,5.32
2022-08-19T03:53:36.944Z,4.72
2022-08-19T03:54:25.308Z,4.82
2022-08-19T03:55:12.520Z,4.97
2022-08-19T03:56:01.163Z,5.12
2022-08-19T03:56:49.427Z,4.60
2022-08-19T03:57:36.188Z,5.35
2022-08-19T03:58:23.609Z,5.57
2022-08-19T03:59:13.017Z,4.80
2022-08-19T04:00:13.805Z,4.35
2022-08-19T04:01:00.853Z,4.47
2022-08-19T04:01:47.927Z,4.82
2022-08-19T04:02:34.673Z,4.65
2022-08-19T04:03:21.462Z,5.25
2022-08-19T04:04:08.224Z,5.22
2022-08-19T04:04:56.586Z,5.25
2022-08-19T04:05:43.332Z,4.80
2022-08-19T04:06:33.225Z,5.40
2022-08-19T04:07:22.487Z,4.78
2022-08-19T04:08:13.664Z,4.80
2022-08-19T04:09:02.450Z,4.78
2022-08-19T04:09:50.032Z,4.70
2022-08-19T04:10:37.924Z,4.75
2022-08-19T04:11:42.760Z,4.78
2022-08-19T04:12:30.085Z,4.72
2022-08-19T04:13:18.405Z,4.70
2022-08-19T04:14:05.508Z,4.90
2022-08-19T04:14:52.270Z,4.68
2022-08-19T04:15:43.737Z,4.70
2022-08-19T04:16:34.945Z,4.62
2022-08-19T04:17:23.528Z,5.00
2022-08-19T04:18:11.442Z,5.95
2022-08-19T04:19:01.482Z,4.93
2022-08-19T04:19:48.162Z,6.28
2022-08-19T04:20:47.097Z,5.03
2022-08-19T04:21:34.280Z,4.65
2022-08-19T04:22:21.025Z,5.18
2022-08-19T04:23:07.845Z,5.03
2022-08-19T04:23:55.833Z,4.75
2022-08-19T04:24:42.638Z,5.20
2022-08-19T04:25:29.363Z,5.22
2022-08-19T04:26:21.142Z,5.25
2022-08-19T04:27:08.028Z,5.30
2022-08-19T04:27:54.767Z,5.47
2022-08-19T04:28:41.528Z,5.12
2022-08-19T04:29:28.493Z,5.10
2022-08-19T04:30:15.764Z,4.90
2022-08-19T04:31:02.571Z,5.53
2022-08-19T04:31:49.999Z,4.62
2022-08-19T04:32:36.776Z,4.90
2022-08-19T04:33:28.500Z,5.10
2022-08-19T04:34:17.303Z,5.18
2022-08-19T04:35:16.777Z,5.53
2022-08-19T04:36:06.411Z,5.57
2022-08-19T04:36:55.077Z,5.62
2022-08-19T04:37:41.973Z,5.80
2022-08-19T04:38:29.168Z,5.87
2022-08-19T04:39:18.029Z,5.70
2022-08-19T04:40:25.768Z,5.15
2022-08-19T04:41:31.213Z,5.72
2022-08-19T04:42:37.870Z,5.12
2022-08-19T04:43:24.658Z,5.20
2022-08-19T04:44:12.536Z,5.32
2022-08-19T04:44:59.737Z,4.40
2022-08-19T04:45:47.365Z,4.70
2022-08-19T04:46:39.803Z,4.80
2022-08-19T04:47:48.105Z,5.60
2022-08-19T04:48:35.324Z,5.12
2022-08-19T04:49:23.572Z,4.82
2022-08-19T04:50:12.965Z,4.80
2022-08-19T04:51:00.121Z,4.70
2022-08-19T04:51:48.829Z,5.22
2022-08-19T04:52:35.586Z,4.90
2022-08-19T04:53:22.687Z,4.72
2022-08-19T04:54:09.998Z,4.78
2022-08-19T04:54:56.745Z,4.87
2022-08-19T04:55:44.148Z,5.00
2022-08-19T04:56:30.966Z,4.80
2022-08-19T04:57:17.707Z,5.68
2022-08-19T04:58:04.936Z,5.00
2022-08-19T04:58:52.616Z,5.10
2022-08-19T04:59:40.405Z,5.20
2022-08-19T05:00:27.125Z,5.07
2022-08-19T05:01:25.879Z,4.40
2022-08-19T05:02:12.753Z,5.28
2022-08-19T05:02:59.501Z,4.87
2022-08-19T05:03:49.470Z,4.87
2022-08-19T05:04:39.682Z,5.43
2022-08-19T05:05:26.445Z,5.28
2022-08-19T05:06:15.312Z,5.53
2022-08-19T05:07:02.496Z,5.30
2022-08-19T05:07:49.366Z,6.18
2022-08-19T05:08:37.467Z,5.72
2022-08-19T05:09:24.296Z,6.15
2022-08-19T05:10:11.387Z,5.32
2022-08-19T05:10:58.506Z,6.20
2022-08-19T05:11:45.663Z,6.07
2022-08-19T05:12:32.546Z,6.30
2022-08-19T05:13:20.404Z,5.60
2022-08-19T05:14:08.744Z,5.80
2022-08-19T05:14:58.018Z,6.07
2022-08-19T05:15:45.819Z,6.87
2022-08-19T05:16:32.687Z,6.87
2022-08-19T05:17:28.806Z,6.10
2022-08-19T05:18:35.952Z,5.53
2022-08-19T05:19:41.468Z,7.93
2022-08-19T05:20:47.066Z,6.55
2022-08-19T05:21:53.079Z,5.75
2022-08-19T05:22:40.183Z,6.15
2022-08-19T05:23:27.319Z,6.57
2022-08-19T05:24:15.128Z,7.55
2022-08-19T05:25:13.530Z,6.20
2022-08-19T05:26:00.753Z,5.82
2022-08-19T05:26:49.365Z,6.60
2022-08-19T05:27:36.221Z,7.32
2022-08-19T05:28:23.015Z,6.72
2022-08-19T05:29:11.237Z,6.00
2022-08-19T05:29:57.966Z,6.10
2022-08-19T05:30:47.435Z,6.10
2022-08-19T05:31:36.468Z,5.85
2022-08-19T05:32:29.095Z,6.78
2022-08-19T05:33:15.941Z,5.62
2022-08-19T05:34:03.099Z,6.82
2022-08-19T05:34:54.438Z,6.40
2022-08-19T05:35:42.148Z,6.93
2022-08-19T05:36:30.454Z,5.85
2022-08-19T05:37:18.206Z,6.78
2022-08-19T05:38:05.656Z,6.57
2022-08-19T05:38:54.295Z,6.05
2022-08-19T05:39:41.596Z,6.78
2022-08-19T05:40:28.510Z,5.95
2022-08-19T05:41:16.354Z,7.45
2022-08-19T05:42:07.946Z,7.53
2022-08-19T05:42:54.868Z,7.12
2022-08-19T05:43:42.442Z,6.97
2022-08-19T05:44:32.589Z,6.12
2022-08-19T05:45:19.333Z,7.18
2022-08-19T05:46:07.757Z,6.72
2022-08-19T05:46:54.915Z,6.87
2022-08-19T05:47:42.282Z,6.70
2022-08-19T05:48:29.439Z,6.50
2022-08-19T05:49:17.066Z,6.90
2022-08-19T05:50:05.353Z,5.40
2022-08-19T05:50:52.119Z,7.35
2022-08-19T05:51:39.052Z,7.03
2022-08-19T05:52:26.431Z,7.53
2022-08-19T05:53:14.214Z,8.73
2022-08-19T05:54:02.114Z,7.28
2022-08-19T05:54:51.517Z,7.00
2022-08-19T05:55:39.724Z,7.97
2022-08-19T05:56:26.538Z,7.78
2022-08-19T05:57:14.598Z,7.97
2022-08-19T05:58:03.059Z,7.57
2022-08-19T05:58:50.128Z,7.37
2022-08-19T05:59:37.204Z,7.12
2022-08-19T06:00:26.266Z,7.50
2022-08-19T06:01:15.788Z,6.95
2022-08-19T06:02:03.452Z,7.70
2022-08-19T06:02:50.530Z,7.62
2022-08-19T06:03:38.594Z,7.53
2022-08-19T06:04:25.424Z,7.97
2022-08-19T06:05:12.247Z,7.50
2022-08-19T06:06:00.566Z,8.10
2022-08-19T06:06:48.909Z,7.55
2022-08-19T06:07:37.471Z,7.75
2022-08-19T06:08:34.220Z,7.72
2022-08-19T06:09:23.474Z,7.87
2022-08-19T06:10:12.172Z,7.12
2022-08-19T06:10:58.898Z,7.62
2022-08-19T06:11:52.936Z,7.20
2022-08-19T06:12:42.261Z,7.47
2022-08-19T06:13:29.157Z,8.65
2022-08-19T06:14:27.682Z,7.53
2022-08-19T06:15:15.881Z,7.68
2022-08-19T06:16:02.815Z,7.53
2022-08-19T06:16:50.100Z,7.22
2022-08-19T06:17:37.043Z,7.30
2022-08-19T06:18:24.374Z,8.25
2022-08-19T06:19:16.867Z,7.50
2022-08-19T06:20:09.924Z,7.87
2022-08-19T06:20:56.781Z,8.00
2022-08-19T06:21:46.351Z,7.85
2022-08-19T06:22:33.119Z,7.73
2022-08-19T06:23:21.259Z,8.05
2022-08-19T06:24:12.937Z,7.55
2022-08-19T06:24:59.709Z,7.93
2022-08-19T06:25:46.405Z,8.23
2022-08-19T06:26:35.828Z,8.48
2022-08-19T06:27:23.385Z,8.65
2022-08-19T06:28:14.902Z,9.05
2022-08-19T06:29:02.523Z,7.72
2022-08-19T06:29:49.574Z,8.05
2022-08-19T06:30:37.370Z,7.72
2022-08-19T06:31:27.998Z,8.35
2022-08-19T06:32:17.604Z,8.20
2022-08-19T06:33:04.343Z,7.85
2022-08-19T06:33:51.455Z,7.78
2022-08-19T06:34:39.472Z,8.82
2022-08-19T06:35:26.565Z,8.40
2022-08-19T06:36:25.605Z,8.50
2022-08-19T06:37:13.206Z,8.57
2022-08-19T06:38:00.462Z,8.15
2022-08-19T06:38:47.298Z,8.85
2022-08-19T06:39:37.699Z,8.20
2022-08-19T06:40:24.608Z,8.48
2022-08-19T06:41:11.286Z,8.70
2022-08-19T06:42:01.227Z,8.18
2022-08-19T06:42:54.991Z,8.77
2022-08-19T06:43:43.705Z,8.60
2022-08-19T06:44:35.445Z,8.40
2022-08-19T06:45:34.730Z,8.18
2022-08-19T06:46:23.504Z,8.35
2022-08-19T06:47:14.690Z,9.02
2022-08-19T06:48:09.966Z,8.43
2022-08-19T06:48:59.258Z,8.55
2022-08-19T06:49:46.118Z,8.68
2022-08-19T06:50:32.849Z,8.32
2022-08-19T06:51:19.974Z,8.32
2022-08-19T06:52:07.141Z,8.60
2022-08-19T06:52:55.474Z,8.20
2022-08-19T06:53:46.992Z,8.25
2022-08-19T06:54:37.631Z,8.75
2022-08-19T06:55:41.407Z,7.85
2022-08-19T06:56:32.838Z,8.48
2022-08-19T06:57:19.549Z,8.82
2022-08-19T06:58:06.375Z,9.20
2022-08-19T06:58:53.946Z,8.60
2022-08-19T06:59:40.855Z,8.52
2022-08-19T07:00:27.812Z,9.20
2022-08-19T07:01:14.609Z,9.43
2022-08-19T07:02:06.638Z,7.85
2022-08-19T07:02:59.061Z,8.07
2022-08-19T07:03:47.888Z,8.27
2022-08-19T07:04:37.016Z,8.10
2022-08-19T07:05:23.765Z,8.55
2022-08-19T07:06:32.506Z,7.87
2022-08-19T07:07:23.336Z,7.80
2022-08-19T07:08:10.473Z,7.07
2022-08-19T07:08:59.157Z,6.55
2022-08-19T07:09:52.270Z,6.75
2022-08-19T07:10:47.483Z,6.68
2022-08-19T07:11:34.739Z,6.45
2022-08-19T07:12:21.483Z,6.85
2022-08-19T07:13:09.882Z,6.90
2022-08-19T07:13:56.694Z,7.15
2022-08-19T07:14:43.877Z,6.70
2022-08-19T07:15:30.880Z,7.35
2022-08-19T07:16:21.665Z,7.18
2022-08-19T07:17:16.221Z,7.28
2022-08-19T07:18:04.487Z,7.43
2022-08-19T07:18:52.145Z,7.00
2022-08-19T07:19:39.924Z,7.55
2022-08-19T07:20:28.505Z,7.12
2022-08-19T07:21:30.087Z,7.57
2022-08-19T07:22:17.364Z,7.55
2022-08-19T07:23:07.148Z,6.50
2022-08-19T07:23:55.127Z,7.28
2022-08-19T07:24:43.003Z,6.03
2022-08-19T07:25:39.172Z,7.10
2022-08-19T07:26:31.479Z,7.40
2022-08-19T07:27:24.543Z,6.57
2022-08-19T07:28:18.037Z,6.80
2022-08-19T07:29:11.968Z,6.62
2022-08-19T07:30:00.511Z,7.10
2022-08-19T07:30:47.248Z,6.65
2022-08-19T07:31:37.630Z,6.97
2022-08-19T07:33:13.722Z,7.65
2022-08-19T07:34:01.441Z,6.75
2022-08-19T07:34:48.300Z,6.82
2022-08-19T07:35:35.366Z,6.53
2022-08-19T07:36:26.033Z,6.12
2022-08-19T07:37:12.923Z,7.35
2022-08-19T07:38:03.566Z,6.22
2022-08-19T07:38:52.609Z,6.45
2022-08-19T07:39:40.903Z,6.53
2022-08-19T07:40:27.654Z,6.07
2022-08-19T07:41:17.811Z,6.20
2022-08-19T07:42:08.751Z,7.45
2022-08-19T07:42:55.477Z,6.60
2022-08-19T07:43:44.548Z,6.60
2022-08-19T07:44:31.543Z,6.30
2022-08-19T07:45:18.352Z,6.00
2022-08-19T07:46:05.487Z,6.55
2022-08-19T07:46:56.839Z,6.40
2022-08-19T07:47:49.137Z,6.82
2022-08-19T07:48:38.451Z,7.20
2022-08-19T07:49:25.549Z,6.90
2022-08-19T07:50:12.763Z,6.32
2022-08-19T07:51:02.992Z,6.32
2022-08-19T07:51:58.287Z,6.25
2022-08-19T07:53:01.636Z,6.50
2022-08-19T07:53:51.154Z,6.43
2022-08-19T07:54:40.273Z,6.53
2022-08-19T07:55:41.626Z,5.93
2022-08-19T07:56:30.413Z,7.50
2022-08-19T07:57:18.786Z,6.47
2022-08-19T07:58:06.129Z,6.80
2022-08-19T07:58:53.709Z,7.22
2022-08-19T07:59:41.221Z,6.72
2022-08-19T08:00:28.030Z,6.10
2022-08-19T08:01:19.608Z,6.45
2022-08-19T08:02:06.574Z,6.50
2022-08-19T08:02:55.385Z,6.43
2022-08-19T08:04:01.977Z,6.40
2022-08-19T08:05:07.237Z,6.93
2022-08-19T08:06:12.259Z,6.68
2022-08-19T08:07:17.765Z,6.68
2022-08-19T08:08:23.122Z,6.40
2022-08-19T08:10:20.970Z,6.65
2022-08-19T08:11:08.764Z,6.70
2022-08-19T08:12:01.948Z,6.70
2022-08-19T08:13:09.170Z,6.95
2022-08-19T08:14:29.348Z,6.57
2022-08-19T08:15:19.602Z,6.30
2022-08-19T08:16:10.261Z,7.03
2022-08-19T08:17:00.944Z,6.93
2022-08-19T08:17:49.198Z,6.80
2022-08-19T08:18:43.239Z,6.85
2022-08-19T08:19:30.289Z,6.93
2022-08-19T08:20:18.703Z,6.53
2022-08-19T08:21:20.563Z,6.57
2022-08-19T08:22:07.535Z,6.80
2022-08-19T08:23:13.501Z,7.45
2022-08-19T08:24:52.040Z,6.90
2022-08-19T08:25:39.396Z,6.90
2022-08-19T08:26:27.394Z,6.50
2022-08-19T08:27:17.038Z,6.80
2022-08-19T08:28:06.002Z,7.32
2022-08-19T08:28:54.528Z,7.28
2022-08-19T08:29:42.189Z,6.82
2022-08-19T08:30:32.553Z,6.50
2022-08-19T08:31:20.305Z,7.18
2022-08-19T08:32:14.758Z,7.53
2022-08-19T08:33:02.641Z,6.97
2022-08-19T08:33:49.558Z,7.05
2022-08-19T08:34:38.122Z,7.75
2022-08-19T08:35:25.714Z,7.65
2022-08-19T08:36:14.901Z,7.05
2022-08-19T08:37:01.776Z,8.50
2022-08-19T08:37:51.354Z,7.37
2022-08-19T08:38:41.030Z,7.28
2022-08-19T08:39:29.828Z,8.30
2022-08-19T08:40:49.932Z,7.68
2022-08-19T08:41:51.143Z,6.97
2022-08-19T08:42:42.123Z,8.00
2022-08-19T08:43:38.067Z,7.40
2022-08-19T08:44:33.970Z,7.47
2022-08-19T08:45:24.352Z,7.50
2022-08-19T08:46:30.982Z,7.65
2022-08-19T08:47:20.455Z,7.22
2022-08-19T08:48:24.403Z,7.12
2022-08-19T08:49:35.426Z,7.47
2022-08-19T08:50:31.571Z,7.60
2022-08-19T08:51:30.892Z,6.80
2022-08-19T08:52:26.005Z,7.10
2022-08-19T08:53:29.769Z,7.05
2022-08-19T08:54:21.761Z,6.40
2022-08-19T08:55:11.629Z,7.30
2022-08-19T08:55:59.342Z,7.75
2022-08-19T08:56:47.182Z,7.62
2022-08-19T08:58:00.406Z,7.62
2022-08-19T08:58:54.770Z,7.35
2022-08-19T08:59:43.227Z,7.32
2022-08-19T09:00:40.059Z,6.62
2022-08-19T09:01:30.262Z,7.90
2022-08-19T09:02:18.640Z,7.15
2022-08-19T09:03:17.925Z,7.50
2022-08-19T09:04:07.232Z,6.80
2022-08-19T09:04:55.687Z,6.65
2022-08-19T09:06:15.862Z,7.20
2022-08-19T09:07:35.954Z,6.97
2022-08-19T09:08:37.736Z,7.45
2022-08-19T09:09:46.889Z,7.53
2022-08-19T09:10:44.337Z,7.35
2022-08-19T09:11:49.791Z,7.80
2022-08-19T09:13:09.269Z,7.68
2022-08-19T09:14:50.243Z,7.30
2022-08-19T09:15:45.579Z,7.00
2022-08-19T09:16:35.446Z,7.45
2022-08-19T09:17:32.221Z,7.47
2022-08-19T09:18:19.660Z,7.00
2022-08-19T09:19:08.516Z,7.22
2022-08-19T09:20:10.054Z,7.47
2022-08-19T09:20:57.973Z,6.75
2022-08-19T09:21:44.989Z,6.75
2022-08-19T09:22:32.320Z,6.65
2022-08-19T09:23:26.637Z,6.35
2022-08-19T09:24:13.963Z,6.47
2022-08-19T09:25:01.502Z,6.60
2022-08-19T09:25:48.450Z,7.22
2022-08-19T09:26:47.651Z,6.40
2022-08-19T09:27:43.000Z,6.25
2022-08-19T09:28:30.491Z,6.95
2022-08-19T09:29:19.555Z,6.82
2022-08-19T09:30:12.837Z,6.62
2022-08-19T09:31:46.448Z,6.93
2022-08-19T09:32:34.521Z,7.03
2022-08-19T09:33:21.389Z,6.45
2022-08-19T09:34:21.205Z,6.68
2022-08-19T09:35:09.167Z,6.45
2022-08-19T09:36:08.825Z,6.32
2022-08-19T09:36:56.690Z,8.60
2022-08-19T09:37:44.566Z,8.15
2022-08-19T09:38:31.713Z,6.97
2022-08-19T09:39:18.519Z,7.70
2022-08-19T09:40:06.334Z,8.32
2022-08-19T09:40:53.310Z,7.57
2022-08-19T09:41:40.245Z,7.12
2022-08-19T09:42:35.469Z,6.43
2022-08-19T09:43:31.112Z,6.50
2022-08-19T09:44:30.726Z,6.53
2022-08-19T09:45:22.087Z,6.50
2022-08-19T09:46:10.490Z,6.85
2022-08-19T09:46:57.392Z,6.57
2022-08-19T09:47:47.323Z,6.25
2022-08-19T09:48:34.864Z,6.43
2022-08-19T09:49:25.366Z,6.97
2022-08-19T09:50:16.407Z,6.75
2022-08-19T09:51:12.147Z,6.57
2022-08-19T09:51:59.061Z,6.75
2022-08-19T09:52:55.264Z,6.68
2022-08-19T09:53:46.333Z,6.45
2022-08-19T09:54:44.150Z,6.68
2022-08-19T09:55:34.026Z,6.40
2022-08-19T09:56:22.274Z,7.00
2022-08-19T09:57:16.120Z,7.25
2022-08-19T09:58:03.689Z,6.93
2022-08-19T09:58:51.082Z,6.93
2022-08-19T09:59:40.440Z,7.32
2022-08-19T10:00:32.928Z,7.20
2022-08-19T10:01:24.087Z,6.72
2022-08-19T10:02:11.932Z,7.18
2022-08-19T10:02:59.704Z,6.70
2022-08-19T10:03:51.926Z,6.57
2022-08-19T10:04:57.526Z,6.82
2022-08-19T10:05:50.591Z,6.62
2022-08-19T10:06:45.673Z,6.55
2022-08-19T10:07:36.503Z,6.53
2022-08-19T10:08:29.709Z,7.05
2022-08-19T10:09:18.361Z,7.05
2022-08-19T10:10:21.102Z,7.55
2022-08-19T10:11:28.710Z,7.25
2022-08-19T10:12:15.264Z,6.55
2022-08-19T10:13:07.855Z,6.80
2022-08-19T10:13:54.902Z,6.78
2022-08-19T10:14:41.798Z,6.50
2022-08-19T10:15:29.533Z,6.82
2022-08-19T10:16:22.603Z,6.18
2022-08-19T10:17:20.000Z,6.18
2022-08-19T10:18:09.015Z,6.07
2022-08-19T10:18:58.717Z,6.93
2022-08-19T10:19:55.126Z,5.62
2022-08-19T10:20:43.454Z,5.97
2022-08-19T10:21:32.462Z,6.53
2022-08-19T10:22:19.873Z,6.35
2022-08-19T10:23:06.838Z,6.50
2022-08-19T10:23:58.798Z,6.30
2022-08-19T10:24:50.653Z,5.78
2022-08-19T10:25:38.694Z,5.87
2022-08-19T10:26:38.142Z,5.78
2022-08-19T10:27:26.249Z,5.90
2022-08-19T10:28:13.470Z,5.87
2022-08-19T10:29:01.235Z,6.45
2022-08-19T10:29:49.289Z,6.45
2022-08-19T10:30:40.535Z,5.57
2022-08-19T10:32:02.655Z,6.07
2022-08-19T10:32:37.400Z,5.93
2022-08-19T10:33:38.732Z,6.07
2022-08-19T10:34:33.016Z,6.28
2022-08-19T10:35:21.891Z,6.03
2022-08-19T10:36:18.904Z,5.93
2022-08-19T10:37:08.445Z,6.25
2022-08-19T10:38:02.682Z,6.12
2022-08-19T10:38:56.633Z,6.78
2022-08-19T10:39:44.096Z,6.10
2022-08-19T10:40:31.175Z,5.75
2022-08-19T10:41:23.506Z,6.28
2022-08-19T10:42:11.852Z,5.62
2022-08-19T10:42:59.165Z,5.82
2022-08-19T10:43:46.401Z,6.60
2022-08-19T10:44:34.194Z,5.68
2022-08-19T10:45:28.304Z,5.97
2022-08-19T10:46:16.920Z,6.28
2022-08-19T10:47:05.209Z,6.20
2022-08-19T10:48:04.903Z,5.68
2022-08-19T10:48:52.344Z,5.80
2022-08-19T10:49:59.090Z,5.50
2022-08-19T10:51:04.512Z,6.80
2022-08-19T10:52:19.049Z,5.85
2022-08-19T10:53:12.023Z,6.12
2022-08-19T10:54:00.775Z,6.03
2022-08-19T10:55:08.221Z,5.68
2022-08-19T10:56:13.999Z,5.60
2022-08-19T10:57:00.767Z,5.75
2022-08-19T10:58:01.900Z,6.68
2022-08-19T10:58:50.114Z,5.57
2022-08-19T10:59:37.302Z,6.15
2022-08-19T11:00:25.417Z,5.30
2022-08-19T11:01:12.379Z,5.93
2022-08-19T11:02:03.379Z,6.00
2022-08-19T11:02:50.518Z,5.82
2022-08-19T11:03:42.678Z,5.68
2022-08-19T11:04:29.747Z,6.53
2022-08-19T11:05:16.982Z,5.57
2022-08-19T11:06:07.222Z,5.60
2022-08-19T11:06:54.202Z,6.40
2022-08-19T11:07:42.131Z,5.12
2022-08-19T11:08:28.935Z,5.78
2022-08-19T11:09:21.713Z,5.43
2022-08-19T11:10:13.157Z,6.32
2022-08-19T11:11:04.006Z,5.62
2022-08-19T11:11:51.412Z,5.75
2022-08-19T11:12:42.239Z,5.68
2022-08-19T11:13:30.918Z,5.43
2022-08-19T11:14:21.697Z,5.62
2022-08-19T11:15:12.092Z,5.50
2022-08-19T11:16:56.966Z,5.65
2022-08-19T11:17:44.856Z,6.10